createdAt,value
2019-02-20T00:00:54.526Z,100783.97
2019-02-20T00:03:23.700Z,100782.27
2019-02-20T00:05:51.401Z,100783.83
2019-02-20T00:08:20.597Z,100777.08
2019-02-20T00:10:50.172Z,100790.94
2019-02-20T00:13:18.511Z,100786.50
2019-02-20T00:15:45.998Z,100791.81
2019-02-20T00:18:15.046Z,100791.57
2019-02-20T00:20:42.532Z,100792.11
2019-02-20T00:23:11.831Z,100795.85
2019-02-20T00:25:39.381Z,100800.61
2019-02-20T00:28:06.771Z,100795.93
2019-02-20T00:30:34.172Z,100801.98
2019-02-20T00:33:01.612Z,100791.79
2019-02-20T00:35:29.005Z,100798.20
2019-02-20T00:37:56.471Z,100797.34
2019-02-20T00:40:23.895Z,100802.49
2019-02-20T00:42:51.439Z,100801.62
2019-02-20T00:45:37.581Z,100798.16
2019-02-20T00:48:17.071Z,100799.39
2019-02-20T00:50:44.988Z,100794.41
2019-02-20T00:53:19.768Z,100797.32
2019-02-20T00:55:47.136Z,100795.02
2019-02-20T00:58:14.579Z,100800.33
2019-02-20T01:00:41.977Z,100802.53
2019-02-20T01:03:09.412Z,100791.50
2019-02-20T01:05:36.829Z,100804.91
2019-02-20T01:08:04.366Z,100807.95
2019-02-20T01:10:31.741Z,100804.98
2019-02-20T01:12:59.203Z,100805.11
2019-02-20T01:15:26.566Z,100812.53
2019-02-20T01:17:54.020Z,100806.68
2019-02-20T01:20:21.386Z,100802.30
2019-02-20T01:22:48.882Z,100807.14
2019-02-20T01:25:16.273Z,100806.05
2019-02-20T01:27:43.756Z,100798.31
2019-02-20T01:30:11.800Z,100805.50
2019-02-20T01:32:39.233Z,100797.61
2019-02-20T01:35:06.747Z,100804.33
2019-02-20T01:37:34.223Z,100807.90
2019-02-20T01:40:01.618Z,100806.89
2019-02-20T01:42:29.051Z,100803.92
2019-02-20T01:44:56.477Z,100800.37
2019-02-20T01:47:23.936Z,100788.67
2019-02-20T01:49:51.301Z,100797.71
2019-02-20T01:52:18.759Z,100795.50
2019-02-20T01:54:46.166Z,100798.58
2019-02-20T01:57:13.591Z,100802.39
2019-02-20T01:59:40.981Z,100799.31
2019-02-20T02:02:08.481Z,100805.17
2019-02-20T02:04:35.873Z,100801.55
2019-02-20T02:07:03.326Z,100796.04
2019-02-20T02:09:30.741Z,100794.49
2019-02-20T02:11:58.285Z,100805.10
2019-02-20T02:14:26.251Z,100799.71
2019-02-20T02:16:53.621Z,100795.80
2019-02-20T02:19:21.062Z,100799.61
2019-02-20T02:21:48.466Z,100798.30
2019-02-20T02:24:15.892Z,100800.08
2019-02-20T02:26:43.256Z,100799.71
2019-02-20T02:29:10.708Z,100797.47
2019-02-20T02:31:38.090Z,100801.55
2019-02-20T02:34:05.547Z,100799.19
2019-02-20T02:36:34.538Z,100797.59
2019-02-20T02:39:02.119Z,100795.57
2019-02-20T02:41:29.505Z,100792.05
2019-02-20T02:43:57.309Z,100791.46
2019-02-20T02:46:24.681Z,100783.16
2019-02-20T02:48:52.161Z,100777.30
2019-02-20T02:51:19.552Z,100776.64
2019-02-20T02:53:47.007Z,100768.98
2019-02-20T02:56:14.446Z,100765.37
2019-02-20T02:58:41.892Z,100774.03
2019-02-20T03:01:09.268Z,100773.73
2019-02-20T03:03:36.731Z,100768.52
2019-02-20T03:06:04.120Z,100771.66
2019-02-20T03:08:31.651Z,100761.58
2019-02-20T03:10:59.086Z,100769.47
2019-02-20T03:13:26.581Z,100766.03
2019-02-20T03:15:53.951Z,100763.41
2019-02-20T03:18:21.386Z,100761.38
2019-02-20T03:20:49.271Z,100762.45
2019-02-20T03:23:16.776Z,100761.52
2019-02-20T03:25:44.163Z,100760.61
2019-02-20T03:28:11.582Z,100756.00
2019-02-20T03:30:39.008Z,100767.14
2019-02-20T03:33:06.523Z,100763.39
2019-02-20T03:35:34.006Z,100769.75
2019-02-20T03:38:01.586Z,100768.09
2019-02-20T03:40:29.057Z,100771.34
2019-02-20T03:42:56.457Z,100776.39
2019-02-20T03:45:23.907Z,100775.99
2019-02-20T03:47:51.305Z,100776.27
2019-02-20T03:50:18.779Z,100775.16
2019-02-20T03:52:46.171Z,100771.89
2019-02-20T03:55:13.591Z,100768.44
2019-02-20T03:57:41.015Z,100774.96
2019-02-20T04:00:08.656Z,100776.27
2019-02-20T04:02:36.034Z,100777.52
2019-02-20T04:05:03.827Z,100780.30
2019-02-20T04:07:31.253Z,100781.17
2019-02-20T04:09:58.636Z,100777.19
2019-02-20T04:12:26.017Z,100772.37
2019-02-20T04:14:53.449Z,100768.30
2019-02-20T04:17:20.851Z,100769.60
2019-02-20T04:19:48.272Z,100767.59
2019-02-20T04:22:15.672Z,100772.34
2019-02-20T04:24:43.125Z,100770.44
2019-02-20T04:27:10.493Z,100764.62
2019-02-20T04:29:37.949Z,100770.67
2019-02-20T04:32:05.403Z,100770.73
2019-02-20T04:34:32.826Z,100770.20
2019-02-20T04:37:00.232Z,100767.36
2019-02-20T04:39:27.655Z,100773.71
2019-02-20T04:41:55.076Z,100768.59
2019-02-20T04:44:22.555Z,100775.61
2019-02-20T04:46:50.006Z,100772.10
2019-02-20T04:49:17.386Z,100774.91
2019-02-20T04:51:44.819Z,100781.43
2019-02-20T04:54:13.714Z,100782.02
2019-02-20T04:56:41.452Z,100784.56
2019-02-20T04:59:08.821Z,100779.78
2019-02-20T05:01:36.337Z,100780.35
2019-02-20T05:04:03.751Z,100780.35
2019-02-20T05:06:31.186Z,100778.88
2019-02-20T05:08:58.577Z,100776.16
2019-02-20T05:11:26.023Z,100779.78
2019-02-20T05:13:53.435Z,100785.00
2019-02-20T05:16:20.887Z,100784.09
2019-02-20T05:18:48.277Z,100789.91
2019-02-20T05:21:15.695Z,100785.47
2019-02-20T05:23:43.147Z,100780.35
2019-02-20T05:26:10.611Z,100782.39
2019-02-20T05:28:38.019Z,100785.94
2019-02-20T05:31:05.441Z,100784.14
2019-02-20T05:33:32.876Z,100784.01
2019-02-20T05:36:00.647Z,100782.94
2019-02-20T05:38:28.047Z,100779.06
2019-02-20T05:40:55.537Z,100780.46
2019-02-20T05:43:23.024Z,100771.80
2019-02-20T05:45:50.447Z,100771.70
2019-02-20T05:48:17.812Z,100776.02
2019-02-20T05:50:45.292Z,100777.92
2019-02-20T05:53:12.695Z,100777.62
2019-02-20T05:55:40.120Z,100778.80
2019-02-20T05:58:07.528Z,100773.69
2019-02-20T06:00:34.982Z,100780.20
2019-02-20T06:03:02.351Z,100775.12
2019-02-20T06:05:29.799Z,100779.44
2019-02-20T06:07:57.401Z,100780.44
2019-02-20T06:10:24.909Z,100788.89
2019-02-20T06:13:07.474Z,100793.14
2019-02-20T06:15:43.106Z,100798.92
2019-02-20T06:18:17.041Z,100801.80
2019-02-20T06:20:53.664Z,100801.03
2019-02-20T06:23:26.589Z,100805.14
2019-02-20T06:25:57.606Z,100808.71
2019-02-20T06:28:49.262Z,100815.59
2019-02-20T06:31:17.012Z,100816.20
2019-02-20T06:33:47.434Z,100831.31
2019-02-20T06:36:38.400Z,100819.05
2019-02-20T06:39:05.772Z,100823.00
2019-02-20T06:41:39.245Z,100829.61
2019-02-20T06:44:03.127Z,100835.80
2019-02-20T06:46:31.082Z,100835.00
2019-02-20T06:48:59.644Z,100834.88
2019-02-20T06:51:30.436Z,100845.84
2019-02-20T06:53:58.174Z,100842.59
2019-02-20T06:56:25.596Z,100850.79
2019-02-20T06:58:53.006Z,100848.11
2019-02-20T07:01:20.441Z,100842.56
2019-02-20T07:03:47.822Z,100855.30
2019-02-20T07:06:49.351Z,100853.06
2019-02-20T07:10:31.672Z,100853.30
2019-02-20T07:13:11.767Z,100861.06
2019-02-20T07:15:59.527Z,100859.05
2019-02-20T07:18:57.992Z,100864.17
2019-02-20T07:22:02.729Z,100867.28
2019-02-20T07:25:02.802Z,100860.89
2019-02-20T07:28:14.228Z,100863.27
2019-02-20T07:30:41.857Z,100874.09
2019-02-20T07:33:09.561Z,100877.60
2019-02-20T07:35:37.202Z,100873.59
2019-02-20T07:38:04.894Z,100872.49
2019-02-20T07:40:32.332Z,100879.69
2019-02-20T07:43:00.056Z,100885.38
2019-02-20T07:45:29.281Z,100882.48
2019-02-20T07:47:56.802Z,100877.27
2019-02-20T07:50:24.183Z,100884.73
2019-02-20T07:52:51.897Z,100886.55
2019-02-20T07:55:19.281Z,100892.52
2019-02-20T07:57:46.741Z,100897.91
2019-02-20T08:00:14.652Z,100895.17
2019-02-20T08:02:42.133Z,100890.91
2019-02-20T08:05:09.597Z,100897.97
2019-02-20T08:07:37.066Z,100891.95
2019-02-20T08:10:05.629Z,100891.02
2019-02-20T08:12:33.080Z,100906.88
2019-02-20T08:15:00.686Z,100904.14
2019-02-20T08:17:28.206Z,100909.19
2019-02-20T08:19:55.675Z,100914.88
2019-02-20T08:22:23.266Z,100915.70
2019-02-20T08:24:50.773Z,100924.26
2019-02-20T08:27:18.437Z,100916.32
2019-02-20T08:29:46.110Z,100922.06
2019-02-20T08:32:13.759Z,100922.06
2019-02-20T08:34:41.311Z,100932.09
2019-02-20T08:37:08.838Z,100933.23
2019-02-20T08:39:36.294Z,100938.70
2019-02-20T08:42:04.046Z,100940.78
2019-02-20T08:44:31.944Z,100944.16
2019-02-20T08:46:59.383Z,100943.48
2019-02-20T08:49:26.911Z,100951.33
2019-02-20T08:51:54.396Z,100947.34
2019-02-20T08:54:21.882Z,100950.06
2019-02-20T08:56:49.347Z,100951.56
2019-02-20T08:59:16.868Z,100958.97
2019-02-20T09:01:44.331Z,100959.98
2019-02-20T09:04:11.893Z,100957.26
2019-02-20T09:06:39.311Z,100951.89
2019-02-20T09:09:06.826Z,100958.61
2019-02-20T09:11:34.233Z,100956.34
2019-02-20T09:14:01.746Z,100967.46
2019-02-20T09:16:29.478Z,100971.05
2019-02-20T09:18:56.966Z,100972.28
2019-02-20T09:21:24.350Z,100977.05
2019-02-20T09:23:51.928Z,100975.11
2019-02-20T09:26:19.366Z,100971.73
2019-02-20T09:28:46.887Z,100966.68
2019-02-20T09:31:14.286Z,100975.58
2019-02-20T09:33:41.815Z,100972.37
2019-02-20T09:36:09.367Z,100982.28
2019-02-20T09:38:36.822Z,100976.56
2019-02-20T09:41:04.236Z,100974.70
2019-02-20T09:43:31.757Z,100977.32
2019-02-20T09:45:59.416Z,100977.88
2019-02-20T09:48:26.987Z,100979.37
2019-02-20T09:50:54.552Z,100968.78
2019-02-20T09:53:22.171Z,100973.52
2019-02-20T09:55:51.835Z,100974.37
2019-02-20T09:58:19.398Z,100986.36
2019-02-20T10:00:46.901Z,100976.29
2019-02-20T10:03:14.322Z,100972.64
2019-02-20T10:05:41.888Z,100970.84
2019-02-20T10:08:09.349Z,100972.51
2019-02-20T10:10:36.836Z,100982.14
2019-02-20T10:13:04.233Z,100979.29
2019-02-20T10:15:31.752Z,100982.59
2019-02-20T10:18:00.017Z,100983.70
2019-02-20T10:20:28.019Z,100994.41
2019-02-20T10:22:55.688Z,100990.80
2019-02-20T10:25:23.352Z,100993.42
2019-02-20T10:27:50.831Z,100989.25
2019-02-20T10:30:18.479Z,100996.72
2019-02-20T10:32:46.001Z,100999.72
2019-02-20T10:35:13.456Z,100988.73
2019-02-20T10:37:40.911Z,100990.41
2019-02-20T10:40:08.887Z,100994.59
2019-02-20T10:42:36.311Z,100982.80
2019-02-20T10:45:04.497Z,100992.06
2019-02-20T10:47:31.931Z,100980.23
2019-02-20T10:49:59.459Z,100995.52
2019-02-20T10:52:27.801Z,100995.41
2019-02-20T10:54:57.698Z,100996.75
2019-02-20T10:57:24.792Z,100998.90
2019-02-20T10:59:52.269Z,100995.88
2019-02-20T11:02:19.916Z,100981.02
2019-02-20T11:04:47.386Z,100974.55
2019-02-20T11:07:15.020Z,100986.02
2019-02-20T11:09:42.391Z,100973.66
2019-02-20T11:12:10.311Z,100983.12
2019-02-20T11:14:38.397Z,100986.50
2019-02-20T11:17:05.877Z,100985.19
2019-02-20T11:19:35.596Z,100981.77
2019-02-20T11:22:03.306Z,100977.05
2019-02-20T11:24:30.746Z,100978.74
2019-02-20T11:26:58.617Z,100974.02
2019-02-20T11:29:26.398Z,100976.06
2019-02-20T11:31:53.891Z,100979.39
2019-02-20T11:34:21.386Z,100980.73
2019-02-20T11:36:49.487Z,100984.34
2019-02-20T11:39:17.181Z,100982.73
2019-02-20T11:41:44.721Z,100972.53
2019-02-20T11:44:20.653Z,100975.77
2019-02-20T11:46:41.707Z,100974.72
2019-02-20T11:49:09.176Z,100983.97
2019-02-20T11:51:37.106Z,100980.38
2019-02-20T11:54:04.521Z,100980.42
2019-02-20T11:56:33.592Z,100988.28
2019-02-20T11:59:02.206Z,100980.30
2019-02-20T12:01:30.811Z,100984.47
2019-02-20T12:03:58.801Z,100983.53
2019-02-20T12:06:26.292Z,100988.19
2019-02-20T12:08:55.642Z,100984.56
2019-02-20T12:11:23.332Z,100984.38
2019-02-20T12:13:50.916Z,100978.72
2019-02-20T12:16:19.129Z,100974.42
2019-02-20T12:18:46.632Z,100969.77
2019-02-20T12:21:17.731Z,100973.50
2019-02-20T12:23:46.677Z,100972.45
2019-02-20T12:26:14.751Z,100974.92
2019-02-20T12:28:43.281Z,100969.53
2019-02-20T12:31:13.773Z,100970.84
2019-02-20T12:33:42.047Z,100973.77
2019-02-20T12:36:10.466Z,100969.50
2019-02-20T12:38:38.666Z,100981.55
2019-02-20T12:41:06.082Z,100984.27
2019-02-20T12:43:35.475Z,100997.92
2019-02-20T12:46:02.906Z,100997.04
2019-02-20T12:48:30.502Z,100994.34
2019-02-20T12:50:57.957Z,101000.53
2019-02-20T12:53:25.526Z,101000.86
2019-02-20T12:56:31.122Z,100999.58
2019-02-20T12:59:07.979Z,100992.72
2019-02-20T13:02:24.456Z,100985.00
2019-02-20T13:16:25.546Z,100964.70
2019-02-20T13:19:00.376Z,100983.13
2019-02-20T13:21:32.370Z,100973.07
2019-02-20T13:24:00.197Z,100972.80
2019-02-20T13:26:27.835Z,100978.52
2019-02-20T13:29:04.555Z,100972.19
2019-02-20T13:31:59.831Z,100983.12
2019-02-20T13:34:36.592Z,100977.03
2019-02-20T13:37:17.260Z,100979.71
2019-02-20T13:39:44.733Z,100980.50
2019-02-20T13:42:35.935Z,100978.22
2019-02-20T13:45:03.291Z,100975.05
2019-02-20T13:47:31.141Z,100976.52
2019-02-20T13:49:58.598Z,100975.82
2019-02-20T13:52:31.126Z,100977.39
2019-02-20T13:54:59.466Z,100977.60
2019-02-20T13:57:32.666Z,100981.90
2019-02-20T14:00:00.846Z,100981.94
2019-02-20T14:02:28.356Z,100982.95
2019-02-20T14:04:56.276Z,100970.52
2019-02-20T14:07:23.786Z,100973.16
2019-02-20T14:09:51.246Z,100976.36
2019-02-20T14:12:19.351Z,100973.32
2019-02-20T14:14:46.842Z,100970.94
2019-02-20T14:17:14.274Z,100965.78
2019-02-20T14:19:41.821Z,100966.53
2019-02-20T14:22:09.316Z,100972.45
2019-02-20T14:24:36.781Z,100973.94
2019-02-20T14:27:10.558Z,100967.98
2019-02-20T14:29:33.945Z,100974.02
2019-02-20T14:32:01.427Z,100969.89
2019-02-20T14:34:28.941Z,100968.63
2019-02-20T14:36:56.471Z,100969.64
2019-02-20T14:39:23.889Z,100971.58
2019-02-20T14:41:51.298Z,100976.75
2019-02-20T14:44:18.788Z,100971.88
2019-02-20T14:46:46.272Z,100966.56
2019-02-20T14:49:13.733Z,100962.77
2019-02-20T14:51:42.028Z,100964.91
2019-02-20T14:54:09.631Z,100967.77
2019-02-20T14:56:37.083Z,100973.98
2019-02-20T14:59:04.562Z,100967.03
2019-02-20T15:01:32.099Z,100973.05
2019-02-20T15:03:59.603Z,100969.97
2019-02-20T15:06:28.225Z,100968.50
2019-02-20T15:08:56.214Z,100961.81
2019-02-20T15:11:23.679Z,100955.58
2019-02-20T15:13:51.152Z,100965.29
2019-02-20T15:16:18.642Z,100964.70
2019-02-20T15:18:46.394Z,100953.11
2019-02-20T15:21:14.197Z,100952.84
2019-02-20T15:23:42.194Z,100959.41
2019-02-20T15:26:09.838Z,100952.83
2019-02-20T15:28:37.576Z,100962.27
2019-02-20T15:31:05.486Z,100960.14
2019-02-20T15:33:33.215Z,100963.22
2019-02-20T15:36:01.043Z,100965.13
2019-02-20T15:38:28.924Z,100967.34
2019-02-20T15:40:56.894Z,100974.89
2019-02-20T15:43:24.735Z,100974.98
2019-02-20T15:45:52.639Z,100978.07
2019-02-20T15:48:23.326Z,100988.59
2019-02-20T15:50:50.630Z,100988.44
2019-02-20T15:53:18.433Z,101005.00
2019-02-20T15:55:47.019Z,101003.39
2019-02-20T15:58:15.389Z,101002.75
2019-02-20T16:00:43.286Z,100997.20
2019-02-20T16:03:10.959Z,100995.47
2019-02-20T16:05:38.939Z,101006.70
2019-02-20T16:08:07.360Z,101007.17
2019-02-20T16:10:35.224Z,101005.25
2019-02-20T16:13:03.743Z,101008.80
2019-02-20T16:15:31.707Z,101014.51
2019-02-20T16:17:59.449Z,101014.16
2019-02-20T16:20:27.258Z,101014.16
2019-02-20T16:22:55.105Z,101010.21
2019-02-20T16:25:23.811Z,101010.05
2019-02-20T16:27:51.783Z,101024.44
2019-02-20T16:30:19.747Z,101023.43
2019-02-20T16:32:47.675Z,101023.51
2019-02-20T16:35:15.750Z,101029.08
2019-02-20T16:37:43.688Z,101022.20
2019-02-20T16:40:12.061Z,101022.59
2019-02-20T16:42:40.014Z,101029.03
2019-02-20T16:45:16.174Z,101030.03
2019-02-20T16:47:43.988Z,101033.17
2019-02-20T16:50:12.256Z,101026.66
2019-02-20T16:52:40.218Z,101026.66
2019-02-20T16:55:08.053Z,101031.24
2019-02-20T16:57:37.113Z,101034.91
2019-02-20T17:00:05.603Z,101035.01
2019-02-20T17:02:33.515Z,101041.22
2019-02-20T17:05:03.714Z,101048.66
2019-02-20T17:07:32.128Z,101045.84
2019-02-20T17:10:00.038Z,101047.88
2019-02-20T17:12:30.397Z,101048.20
2019-02-20T17:14:58.226Z,101047.49
2019-02-20T17:17:26.228Z,101051.08
2019-02-20T17:19:54.048Z,101058.00
2019-02-20T17:22:22.363Z,101070.09
2019-02-20T17:24:50.143Z,101066.66
2019-02-20T17:27:18.111Z,101069.46
2019-02-20T17:29:46.043Z,101076.65
2019-02-20T17:32:13.993Z,101075.15
2019-02-20T17:34:41.863Z,101083.39
2019-02-20T17:37:09.779Z,101086.34
2019-02-20T17:39:38.190Z,101083.23
2019-02-20T17:42:06.389Z,101087.72
2019-02-20T17:44:36.499Z,101086.72
2019-02-20T17:47:04.943Z,101082.89
2019-02-20T17:49:33.133Z,101084.30
2019-02-20T17:52:01.100Z,101089.55
2019-02-20T17:54:30.849Z,101084.41
2019-02-20T17:56:58.818Z,101076.12
2019-02-20T17:59:26.629Z,101085.25
2019-02-20T18:01:54.573Z,101086.70
2019-02-20T18:04:22.437Z,101080.63
2019-02-20T18:06:50.458Z,101081.88
2019-02-20T18:09:18.361Z,101088.77
2019-02-20T18:11:46.573Z,101097.39
2019-02-20T18:14:14.448Z,101086.15
2019-02-20T18:16:42.375Z,101092.52
2019-02-20T18:19:10.880Z,101091.61
2019-02-20T18:21:38.836Z,101097.97
2019-02-20T18:24:07.016Z,101096.77
2019-02-20T18:26:35.371Z,101094.31
2019-02-20T18:29:03.359Z,101097.05
2019-02-20T18:31:31.358Z,101103.06
2019-02-20T18:33:59.133Z,101105.02
2019-02-20T18:36:27.523Z,101108.88
2019-02-20T18:38:55.510Z,101107.98
2019-02-20T18:41:23.653Z,101109.15
2019-02-20T18:43:51.627Z,101110.73
2019-02-20T18:46:19.563Z,101115.63
2019-02-20T18:48:47.550Z,101111.33
2019-02-20T18:51:15.898Z,101116.38
2019-02-20T18:55:14.334Z,101116.58
2019-02-20T18:57:39.649Z,101117.70
2019-02-20T19:00:26.042Z,101117.25
2019-02-20T19:02:54.109Z,101115.94
2019-02-20T19:05:22.060Z,101115.19
2019-02-20T19:07:50.288Z,101119.13
2019-02-20T19:10:25.184Z,101120.04
2019-02-20T19:13:57.296Z,101126.52
2019-02-20T19:17:21.141Z,101131.59
2019-02-20T19:20:11.162Z,101127.02
2019-02-20T19:23:08.869Z,101132.54
2019-02-20T19:26:16.886Z,101126.91
2019-02-20T19:29:22.901Z,101133.10
2019-02-20T19:32:24.635Z,101130.48
2019-02-20T19:35:44.944Z,101126.34
2019-02-20T19:39:00.574Z,101125.04
2019-02-20T19:41:50.609Z,101133.66
2019-02-20T19:44:44.281Z,101131.95
2019-02-20T19:47:35.720Z,101125.68
2019-02-20T19:50:38.327Z,101124.67
2019-02-20T19:53:14.947Z,101123.25
2019-02-20T19:56:09.081Z,101128.41
2019-02-20T19:59:16.320Z,101118.95
2019-02-20T20:02:28.227Z,101124.20
2019-02-20T20:05:14.173Z,101117.75
2019-02-20T20:07:54.684Z,101118.58
2019-02-20T20:10:46.659Z,101111.95
2019-02-20T20:13:48.688Z,101105.39
2019-02-20T20:16:37.203Z,101104.92
2019-02-20T20:19:32.059Z,101105.39
2019-02-20T20:22:20.351Z,101104.83
2019-02-20T20:25:04.597Z,101099.19
2019-02-20T20:28:21.687Z,101108.29
2019-02-20T20:31:25.179Z,101111.19
2019-02-20T20:34:22.335Z,101097.52
2019-02-20T20:37:15.952Z,101097.33
2019-02-20T20:40:11.491Z,101096.41
2019-02-20T20:43:38.986Z,101103.05
2019-02-20T20:46:54.543Z,101100.50
2019-02-20T20:49:59.492Z,101102.57
2019-02-20T20:52:55.971Z,101110.26
2019-02-20T20:55:58.766Z,101106.25
2019-02-20T20:59:04.749Z,101102.13
2019-02-20T21:02:03.066Z,101107.93
2019-02-20T21:05:12.341Z,101105.67
2019-02-20T21:08:10.491Z,101115.97
2019-02-20T21:11:37.936Z,101109.09
2019-02-20T21:14:47.471Z,101115.20
2019-02-20T21:17:41.521Z,101107.33
2019-02-20T21:20:31.778Z,101112.38
2019-02-20T21:23:49.986Z,101116.11
2019-02-20T21:27:05.036Z,101102.91
2019-02-20T21:30:14.571Z,101109.73
2019-02-20T21:33:17.116Z,101112.80
2019-02-20T21:36:32.611Z,101117.06
2019-02-20T21:39:32.056Z,101113.63
2019-02-20T21:42:44.012Z,101109.02
2019-02-20T21:45:50.305Z,101103.60
2019-02-20T21:49:05.531Z,101112.55
2019-02-20T21:52:25.271Z,101111.24
2019-02-20T21:55:15.302Z,101114.63
2019-02-20T21:58:15.371Z,101107.64
2019-02-20T22:01:19.411Z,101117.64
2019-02-20T22:04:25.666Z,101123.53
2019-02-20T22:07:49.892Z,101119.86
2019-02-20T22:10:51.322Z,101124.33
2019-02-20T22:13:31.541Z,101133.50
2019-02-20T22:16:31.865Z,101133.83
2019-02-20T22:19:47.603Z,101128.04
2019-02-20T22:22:53.996Z,101125.86
2019-02-20T22:26:08.806Z,101125.42
2019-02-20T22:28:58.591Z,101140.07
2019-02-20T22:31:55.481Z,101140.44
2019-02-20T22:34:47.776Z,101141.27
2019-02-20T22:38:01.721Z,101138.05
2019-02-20T22:40:55.565Z,101143.04
2019-02-20T22:44:10.105Z,101142.16
2019-02-20T22:46:52.661Z,101143.06
2019-02-20T22:50:02.575Z,101141.39
2019-02-20T22:52:42.717Z,101139.02
2019-02-20T22:55:43.168Z,101136.70
2019-02-20T22:58:38.316Z,101132.11
2019-02-20T23:01:52.232Z,101132.36
2019-02-20T23:04:50.295Z,101132.11
2019-02-20T23:07:38.394Z,101136.69
2019-02-20T23:10:27.651Z,101138.12
2019-02-20T23:13:45.633Z,101132.88
2019-02-20T23:16:56.928Z,101142.55
2019-02-20T23:19:32.766Z,101141.79
2019-02-20T23:22:18.013Z,101143.30
2019-02-20T23:24:49.242Z,101145.61
2019-02-20T23:27:23.365Z,101152.86
2019-02-20T23:29:50.831Z,101153.33
2019-02-20T23:32:18.740Z,101153.50
2019-02-20T23:34:46.360Z,101155.53
2019-02-20T23:37:17.011Z,101151.14
2019-02-20T23:39:44.861Z,101149.05
2019-02-20T23:42:12.716Z,101150.97
2019-02-20T23:44:40.627Z,101154.82
2019-02-20T23:47:11.387Z,101149.17
2019-02-20T23:49:39.641Z,101152.20
2019-02-20T23:52:10.284Z,101152.28
2019-02-20T23:54:37.826Z,101165.48
2019-02-20T23:57:14.755Z,101169.45
2019-02-20T23:59:49.159Z,101171.97
